Time;durP1;ratioP1;P1;durP2;ratioP2;P2;SDS_P1;SDS_P2;PMS_P1;PMS_P2;Temp;Humidity;BMP_temperature;BMP_pressure;BME280_temperature;BME280_humidity;BME280_pressure;Samples;Min_cycle;Max_cycle;Signal;HPM_P1;HPM_P2
2023/11/05 17:20:13;;;;;;;3.03;2.57;;;;;;;;;;6260515;22;20508;-92
2023/11/05 17:22:40;;;;;;;3.13;2.77;;;;;;;;;;6258172;23;20386;-88
2023/11/05 17:25:08;;;;;;;2.60;2.40;;;;;;;;;;6256587;23;20464;-89
2023/11/05 17:27:35;;;;;;;2.70;2.13;;;;;;;;;;6267651;23;20416;-89
2023/11/05 17:30:02;;;;;;;6.13;2.10;;;11.80;99.90;;;;;;6263200;23;20413;-88
2023/11/05 17:32:30;;;;;;;4.00;2.87;;;;;;;;;;6255789;23;20429;-90
2023/11/05 17:34:57;;;;;;;6.60;2.50;;;;;;;;;;6256962;23;20416;-89
2023/11/05 17:37:25;;;;;;;3.70;3.07;;;;;;;;;;6256256;23;20800;-89
2023/11/05 17:39:52;;;;;;;6.23;3.97;;;;;;;;;;6255905;23;20737;-89
2023/11/05 17:42:20;;;;;;;6.40;3.17;;;;;;;;;;6256229;23;20630;-88
2023/11/05 17:44:47;;;;;;;6.47;4.00;;;;;;;;;;6256140;23;20496;-89
2023/11/05 17:47:15;;;;;;;4.43;3.63;;;11.30;99.90;;;;;;6259840;23;20401;-89
2023/11/05 17:49:42;;;;;;;6.93;3.90;;;;;;;;;;6259070;23;20463;-89
2023/11/05 17:52:09;;;;;;;13.33;4.20;;;11.40;99.90;;;;;;6256642;22;20501;-88
2023/11/05 17:54:37;;;;;;;2.50;2.30;;;11.50;99.90;;;;;;6271733;22;20894;-89
2023/11/05 17:57:05;;;;;;;2.03;1.77;;;12.00;99.90;;;;;;6270022;22;20375;-89
2023/11/05 17:59:33;;;;;;;2.87;1.70;;;;;;;;;;6275213;22;20468;-89
2023/11/05 18:02:00;;;;;;;2.73;1.40;;;11.60;1.00;;;;;;6275156;22;20421;-88
2023/11/05 18:04:27;;;;;;;4.40;2.30;;;11.70;99.90;;;;;;6275387;22;20401;-88
2023/11/05 18:06:54;;;;;;;2.20;2.00;;;;;;;;;;6264753;22;20451;-89
2023/11/05 18:09:22;;;;;;;2.10;1.63;;;;;;;;;;6258798;23;20444;-89
2023/11/05 18:11:50;;;;;;;1.53;1.43;;;;;;;;;;6259285;23;20432;-89
2023/11/05 18:14:18;;;;;;;2.50;1.73;;;;;;;;;;6259428;23;20419;-89
2023/11/05 18:16:46;;;;;;;2.60;1.40;;;11.50;99.90;;;;;;6263739;23;20416;-89
2023/11/05 18:19:14;;;;;;;1.50;1.40;;;;;;;;;;6260996;23;20401;-88
2023/11/05 18:21:41;;;;;;;2.20;1.60;;;11.60;99.90;;;;;;6260784;23;20437;-90
2023/11/05 18:24:10;;;;;;;3.23;1.93;;;;;;;;;;6263033;23;20404;-89
2023/11/05 18:26:39;;;;;;;1.70;1.60;;;;;;;;;;6268216;23;20423;-88
2023/11/05 18:29:07;;;;;;;1.50;1.40;;;11.20;96.00;;;;;;6275307;22;20453;-87
2023/11/05 18:31:34;;;;;;;3.60;1.63;;;11.10;99.90;;;;;;6275348;22;20417;-85
2023/11/05 18:34:08;;;;;;;2.57;2.00;;;11.40;99.90;;;;;;6274836;22;20359;-89
2023/11/05 18:36:36;;;;;;;2.40;1.53;;;11.10;99.90;;;;;;6261659;23;20716;-90
2023/11/05 18:39:05;;;;;;;1.90;1.80;;;11.10;99.90;;;;;;6259165;22;20403;-90
2023/11/05 18:41:32;;;;;;;3.37;2.17;;;11.00;99.90;;;;;;6256324;23;20430;-90
2023/11/05 18:44:00;;;;;;;2.10;2.00;;;;;;;;;;6268713;22;20436;-89
2023/11/05 18:46:29;;;;;;;2.10;1.50;;;;;;;;;;6264085;23;20404;-88
2023/11/05 18:48:59;;;;;;;1.47;1.37;;;11.00;1.00;;;;;;6268395;23;20448;-89
2023/11/05 18:51:30;;;;;;;2.57;1.77;;;;;;;;;;6271389;23;20493;-89
2023/11/05 18:53:59;;;;;;;1.70;1.60;;;;;;;;;;6269484;23;20398;-89
2023/11/05 18:56:27;;;;;;;1.60;1.43;;;;;;;;;;6270979;23;20421;-89
2023/11/05 18:58:54;;;;;;;2.17;1.60;;;;;;;;;;6274580;22;20412;-89
2023/11/05 19:01:30;;;;;;;2.27;1.40;;;;;;;;;;6265942;23;20413;-89
2023/11/05 19:04:00;;;;;;;2.93;2.63;;;;;;;;;;6262143;23;20420;-89
2023/11/05 19:06:28;;;;;;;3.83;2.50;;;;;;;;;;6273285;22;20397;-90
2023/11/05 19:08:56;;;;;;;3.03;2.67;;;;;;;;;;6274741;22;20432;-90
2023/11/05 19:11:43;;;;;;;2.43;1.90;;;;;;;;;;6264576;23;20430;-89
2023/11/05 19:14:16;;;;;;;2.20;1.67;;;;;;;;;;6262827;23;20399;-90
2023/11/05 19:16:44;;;;;;;4.40;2.97;;;;;;;;;;6262169;23;20384;-89
2023/11/05 19:35:37;;;;;;;4.17;2.60;;;;;;;;;;6290232;22;20456;-90
2023/11/05 20:09:24;;;;;;;3.93;3.17;;;;;;;;;;6286635;22;20467;-91
2023/11/05 20:15:00;;;;;;;4.23;3.67;;;10.30;1.00;;;;;;6246080;22;20405;-91
2023/11/05 20:21:08;;;;;;;4.10;3.80;;;10.70;23.00;;;;;;6286357;22;20405;-90
2023/11/05 20:23:54;;;;;;;4.73;4.23;;;;;;;;;;6291890;22;20412;-89
2023/11/05 20:26:42;;;;;;;3.50;3.23;;;;;;;;;;6298872;22;20407;-92
2023/11/05 20:29:15;;;;;;;4.23;3.83;;;;;;;;;;6298394;22;20439;-92
2023/11/05 20:34:48;;;;;;;2.90;2.70;;;;;;;;;;6198488;23;20345;-90
2023/11/05 20:37:19;;;;;;;3.33;2.93;;;;;;;;;;6201508;23;20419;-90
2023/11/05 20:42:52;;;;;;;2.97;2.70;;;;;;;;;;6262612;22;20415;-92
2023/11/05 20:45:35;;;;;;;3.90;3.50;;;;;;;;;;6296263;22;20400;-91
2023/11/05 20:50:41;;;;;;;4.47;3.67;;;;;;;;;;6265969;22;20852;-89
2023/11/05 20:53:23;;;;;;;4.23;3.70;;;;;;;;;;6262309;23;20385;-91
2023/11/05 20:56:22;;;;;;;4.47;3.37;;;10.30;1.00;;;;;;6264681;22;20405;-91
2023/11/05 21:12:43;;;;;;;5.23;3.47;;;;;;;;;;6243838;22;20440;-90
2023/11/05 21:15:15;;;;;;;4.10;3.67;;;;;;;;;;6245390;22;20429;-90
2023/11/05 21:20:58;;;;;;;;;;;;;;;;;;;;;
2023/11/05 21:31:50;;;;;;;4.90;4.17;;;10.30;1.00;;;;;;6184434;22;20535;-91
